createdAt,value
2016-10-24T07:14:41.843Z,736.9
2016-10-24T07:15:41.827Z,736.79
2016-10-24T07:16:41.815Z,736.9
2016-10-24T07:17:41.809Z,736.86
2016-10-24T07:18:41.792Z,736.86
2016-10-24T07:19:41.781Z,736.88
2016-10-24T07:20:41.771Z,736.72
2016-10-24T07:21:41.758Z,736.96
2016-10-24T07:22:41.754Z,736.6
2016-10-24T07:23:41.744Z,736.86
2016-10-24T07:24:41.725Z,736.83
2016-10-24T07:25:41.721Z,736.8
2016-10-24T07:26:41.711Z,736.97
2016-10-24T07:27:41.693Z,736.69
2016-10-24T07:28:41.682Z,736.84
2016-10-24T07:29:41.671Z,736.86
2016-10-24T07:30:41.661Z,737.04
2016-10-24T07:31:41.658Z,736.96
2016-10-24T07:32:41.646Z,736.85
2016-10-24T07:33:41.678Z,736.64
2016-10-24T07:34:41.618Z,736.74
2016-10-24T07:35:41.615Z,736.98
2016-10-24T07:36:41.597Z,736.66
2016-10-24T07:37:41.588Z,736.91
2016-10-24T07:38:41.577Z,736.77
2016-10-24T07:39:41.572Z,736.8
2016-10-24T07:40:41.554Z,736.74
2016-10-24T07:41:41.551Z,736.85
2016-10-24T07:42:41.534Z,737.02
2016-10-24T07:43:41.528Z,736.6
2016-10-24T07:44:41.519Z,736.83
2016-10-24T07:45:41.506Z,736.87
2016-10-24T07:46:41.487Z,736.96
2016-10-24T07:47:41.484Z,737.07
2016-10-24T07:48:41.474Z,736.99
2016-10-24T07:49:41.464Z,736.84
2016-10-24T07:50:41.452Z,737.09
2016-10-24T07:51:41.434Z,736.95
2016-10-24T07:52:41.423Z,736.92
2016-10-24T07:53:41.421Z,737.06
2016-10-24T07:54:41.409Z,737.07
2016-10-24T07:55:41.392Z,737.07
2016-10-24T07:56:41.389Z,737.12
2016-10-24T07:57:41.371Z,737.28
2016-10-24T07:58:41.368Z,737.09
2016-10-24T07:59:41.358Z,737.25
2016-10-24T08:00:41.348Z,737.42
2016-10-24T08:01:41.330Z,737.27
2016-10-24T08:02:41.328Z,737.18
2016-10-24T08:03:41.318Z,737.24
2016-10-24T08:04:41.310Z,737.04
2016-10-24T08:05:41.298Z,737.07
2016-10-24T08:06:41.282Z,737.25
2016-10-24T08:07:41.278Z,737.14
2016-10-24T08:08:41.267Z,736.96
2016-10-24T08:09:41.257Z,737.13
2016-10-24T08:10:41.241Z,737.17
2016-10-24T08:11:41.237Z,737.25
2016-10-24T08:12:41.220Z,737.16
2016-10-24T08:13:41.216Z,737.26
2016-10-24T08:14:41.207Z,737.29
2016-10-24T08:15:41.197Z,737.14
2016-10-24T08:16:41.177Z,737.26
2016-10-24T08:17:41.169Z,737.09
2016-10-24T08:18:41.165Z,737.1
2016-10-24T08:19:41.147Z,737.13
2016-10-24T08:20:41.144Z,737.07
2016-10-24T08:21:41.127Z,737.16
2016-10-24T08:22:41.116Z,737
2016-10-24T08:23:41.113Z,737.26
2016-10-24T08:24:41.095Z,737.41
2016-10-24T08:25:41.085Z,737.25
2016-10-24T08:26:41.081Z,737.31
2016-10-24T08:27:41.070Z,737.36
2016-10-24T08:28:41.059Z,737.14
2016-10-24T08:29:41.042Z,737.22
2016-10-24T08:30:41.038Z,737.21
2016-10-24T08:31:41.027Z,737.35
2016-10-24T08:32:41.011Z,737.47
2016-10-24T08:33:40.999Z,737.47
2016-10-24T08:34:40.995Z,737.46
2016-10-24T08:35:40.978Z,737.39
2016-10-24T08:36:40.975Z,737.31
2016-10-24T08:37:40.956Z,737.47
2016-10-24T08:38:40.952Z,737.5
2016-10-24T08:39:40.935Z,737.37
2016-10-24T08:40:40.932Z,737.52
2016-10-24T08:41:40.920Z,737.45
2016-10-24T08:42:40.904Z,737.31
2016-10-24T08:43:40.900Z,737.18
2016-10-24T08:44:40.890Z,737.42
2016-10-24T08:45:40.873Z,737.52
2016-10-24T08:46:40.868Z,737.27
2016-10-24T08:47:40.852Z,737.57
2016-10-24T08:48:40.848Z,737.22
2016-10-24T08:49:40.838Z,737.01
2016-10-24T08:50:40.821Z,737.29
2016-10-24T08:51:40.818Z,737.22
2016-10-24T08:52:40.801Z,737.26
2016-10-24T08:53:40.797Z,737.52
2016-10-24T08:54:40.781Z,737.38
2016-10-24T08:55:40.777Z,737.46
2016-10-24T08:56:40.759Z,737.17
2016-10-24T08:57:40.749Z,737.42
2016-10-24T08:58:40.745Z,737.11
2016-10-24T08:59:40.727Z,737.36
2016-10-24T09:00:40.718Z,737.35
2016-10-24T09:01:40.707Z,737.7
2016-10-24T09:02:40.704Z,737.4
2016-10-24T09:03:40.692Z,737.31
2016-10-24T09:04:40.675Z,737.15
2016-10-24T09:05:40.666Z,737.16
2016-10-24T09:06:40.656Z,737.3
2016-10-24T09:07:40.650Z,737
2016-10-24T09:08:40.633Z,737.54
2016-10-24T09:09:40.629Z,737.12
2016-10-24T09:10:40.611Z,737.19
2016-10-24T09:11:40.600Z,737.32
2016-10-24T09:12:40.596Z,737.71
2016-10-24T09:13:40.579Z,737.32
2016-10-24T09:14:40.566Z,737.25
2016-10-24T09:15:40.563Z,737.61
2016-10-24T09:16:40.553Z,737.25
2016-10-24T09:17:40.536Z,737.61
2016-10-24T09:18:40.524Z,737.57
2016-10-24T09:19:40.513Z,737.64
2016-10-24T09:20:40.509Z,737.5
2016-10-24T09:21:40.490Z,737.54
2016-10-24T09:22:40.486Z,737.79
2016-10-24T09:23:40.476Z,737.66
2016-10-24T09:24:40.458Z,737.43
2016-10-24T09:25:40.445Z,737.45
2016-10-24T09:26:40.434Z,737.56
2016-10-24T09:27:40.424Z,737.56
2016-10-24T09:28:40.412Z,737.87
2016-10-24T09:29:40.408Z,737.48
2016-10-24T09:30:40.397Z,737.64
2016-10-24T09:31:40.378Z,737.43
2016-10-24T09:32:40.368Z,737.79
2016-10-24T09:33:40.363Z,737.26
2016-10-24T09:34:40.353Z,737.31
2016-10-24T09:35:40.341Z,737.43
2016-10-24T09:36:40.329Z,737.8
2016-10-24T09:37:40.310Z,737.64
2016-10-24T09:38:40.300Z,737.77
2016-10-24T09:39:40.288Z,737.65
2016-10-24T09:40:40.284Z,737.54
2016-10-24T09:41:40.266Z,737.63
2016-10-24T09:42:40.254Z,737.66
2016-10-24T09:43:40.242Z,737.51
2016-10-24T09:44:40.238Z,737.28
2016-10-24T09:45:40.221Z,737.56
2016-10-24T09:46:40.209Z,737.7
2016-10-24T09:47:40.197Z,737.62
2016-10-24T09:48:40.193Z,737.73
2016-10-24T09:49:40.182Z,737.65
2016-10-24T09:50:40.171Z,737.44
2016-10-24T09:51:40.160Z,737.79
2016-10-24T09:52:40.148Z,737.72
2016-10-24T09:53:40.137Z,737.69
2016-10-24T09:54:40.119Z,737.66
2016-10-24T09:55:40.107Z,737.85
2016-10-24T09:56:40.096Z,737.9
2016-10-24T09:57:40.091Z,737.56
2016-10-24T09:58:40.079Z,737.41
2016-10-24T09:59:40.062Z,737.82
2016-10-24T10:00:40.057Z,737.86
2016-10-24T10:01:40.046Z,737.85
2016-10-24T10:02:40.027Z,737.83
2016-10-24T10:03:40.016Z,737.83
2016-10-24T10:04:40.004Z,737.95
2016-10-24T10:05:39.992Z,737.9
2016-10-24T10:06:39.988Z,737.8
2016-10-24T10:07:39.970Z,737.99
2016-10-24T10:08:39.959Z,737.86
2016-10-24T10:09:39.947Z,737.92
2016-10-24T10:10:39.943Z,738.08
2016-10-24T10:11:39.925Z,737.89
2016-10-24T10:12:39.920Z,737.76
2016-10-24T10:13:39.901Z,737.55
2016-10-24T10:14:39.897Z,737.77
2016-10-24T10:15:39.880Z,737.75
2016-10-24T10:16:39.867Z,737.9
2016-10-24T10:17:39.855Z,737.99
2016-10-24T10:18:39.851Z,738.04
2016-10-24T10:19:39.834Z,738.23
2016-10-24T10:20:39.828Z,737.66
2016-10-24T10:21:39.817Z,738.31
2016-10-24T10:22:39.806Z,738.1
2016-10-24T10:23:39.796Z,738.29
2016-10-24T10:24:39.777Z,738.36
2016-10-24T10:25:39.773Z,738.41
2016-10-24T10:26:39.754Z,738.16
2016-10-24T10:27:39.744Z,738.29
2016-10-24T10:28:39.739Z,738.48
2016-10-24T10:29:39.721Z,738.07
2016-10-24T10:30:39.710Z,736.38
2016-10-24T10:31:39.698Z,737.85
2016-10-24T10:32:39.687Z,738.26
2016-10-24T10:33:39.683Z,737.39
2016-10-24T10:34:39.671Z,737.99
2016-10-24T10:35:39.660Z,738.46
2016-10-24T10:36:39.649Z,737.69
2016-10-24T10:37:39.638Z,737.82
2016-10-24T10:38:39.626Z,737.35
2016-10-24T10:39:39.614Z,737.72
2016-10-24T10:40:39.603Z,738.14
2016-10-24T10:41:39.592Z,737.82
2016-10-24T10:42:39.579Z,737.58
2016-10-24T10:43:39.568Z,737.8
2016-10-24T10:44:39.557Z,737.19
2016-10-24T10:45:39.538Z,738.19
2016-10-24T10:46:39.533Z,739.02
2016-10-24T10:47:39.516Z,738.18
2016-10-24T10:48:39.511Z,738.25
2016-10-24T10:49:39.498Z,738.19
2016-10-24T10:50:39.487Z,738.01
2016-10-24T10:51:39.476Z,738.31
2016-10-24T10:52:39.778Z,738.01
2016-10-24T10:53:39.446Z,737.61
2016-10-24T10:54:39.435Z,737.85
2016-10-24T10:55:39.423Z,737.83
2016-10-24T10:56:39.417Z,737.78
2016-10-24T10:57:39.400Z,738.08
2016-10-24T10:58:39.388Z,738.08
2016-10-24T10:59:39.376Z,738.24
2016-10-24T11:00:39.371Z,738.31
2016-10-24T11:01:39.353Z,737.91
2016-10-24T11:02:39.350Z,737.54
2016-10-24T11:03:39.338Z,737.87
2016-10-24T11:04:39.326Z,738.03
2016-10-24T11:05:39.309Z,737.94
2016-10-24T11:06:39.297Z,737.56
2016-10-24T11:07:39.295Z,737.67
2016-10-24T11:08:39.275Z,737.61
2016-10-24T11:09:39.263Z,737.99
2016-10-24T11:10:39.253Z,738.08
2016-10-24T11:11:39.239Z,738.25
2016-10-24T11:12:39.236Z,737.99
2016-10-24T11:13:39.225Z,737.93
2016-10-24T11:14:39.206Z,738.12
2016-10-24T11:15:39.195Z,738.48
2016-10-24T11:16:39.190Z,737.64
2016-10-24T11:17:39.179Z,737.1
2016-10-24T11:18:39.160Z,738.04
2016-10-24T11:19:39.150Z,737.95
2016-10-24T11:20:39.139Z,737.77
2016-10-24T11:21:39.128Z,738.28
2016-10-24T11:22:39.116Z,738.33
2016-10-24T11:23:39.113Z,738.25
2016-10-24T11:24:39.095Z,737.71
2016-10-24T11:25:39.092Z,738.27
2016-10-24T11:26:39.075Z,738.55
2016-10-24T11:27:39.063Z,738.48
2016-10-24T11:28:39.060Z,738.36
2016-10-24T11:29:39.043Z,738.26
2016-10-24T11:30:39.039Z,737.96
2016-10-24T11:31:39.028Z,738.03
2016-10-24T11:32:39.012Z,738.18
2016-10-24T11:33:39.001Z,738.15
2016-10-24T11:34:38.996Z,738.19
2016-10-24T11:35:38.980Z,738.41
2016-10-24T11:36:38.976Z,738.28
2016-10-24T11:37:38.957Z,738.08
2016-10-24T11:38:38.948Z,738.5
2016-10-24T11:39:38.937Z,738.23
2016-10-24T11:40:38.933Z,738.54
2016-10-24T11:41:38.923Z,738.66
2016-10-24T11:42:38.914Z,738.38
2016-10-24T11:43:38.896Z,738.36
2016-10-24T11:44:38.891Z,738.58
2016-10-24T11:45:38.875Z,738.35
2016-10-24T11:46:38.873Z,738.34
2016-10-24T11:47:38.855Z,738.35
2016-10-24T11:48:38.850Z,738.29
2016-10-24T11:49:38.840Z,738.39
2016-10-24T11:50:38.824Z,738.5
2016-10-24T11:51:38.819Z,738.46
2016-10-24T11:52:38.801Z,738.48
2016-10-24T11:53:38.791Z,738.48
2016-10-24T11:54:38.788Z,738.38
2016-10-24T11:55:38.771Z,738.53
2016-10-24T11:56:38.767Z,738.48
2016-10-24T11:57:38.757Z,738.17
2016-10-24T11:58:38.748Z,738.2
2016-10-24T11:59:38.737Z,738.62
2016-10-24T12:00:38.727Z,738.64
2016-10-24T12:01:38.710Z,738.35
2016-10-24T12:02:38.706Z,738.37
2016-10-24T12:03:38.696Z,738.37
2016-10-24T12:04:38.686Z,737.85
2016-10-24T12:05:38.677Z,738.43
2016-10-24T12:06:38.665Z,738.33
2016-10-24T12:07:38.655Z,738.18
2016-10-24T12:08:38.644Z,738.32
2016-10-24T12:09:38.633Z,738.18
2016-10-24T12:10:38.617Z,738.58
2016-10-24T12:11:38.613Z,738.59
2016-10-24T12:12:38.595Z,738.15
2016-10-24T12:13:38.591Z,738.49
2016-10-24T12:14:38.581Z,738.62
2016-10-24T12:15:38.571Z,738.68
2016-10-24T12:16:38.554Z,738.21
2016-10-24T12:17:38.550Z,738.23
2016-10-24T12:18:38.534Z,738.36
2016-10-24T12:19:38.523Z,738.45
2016-10-24T12:20:38.519Z,738.45
2016-10-24T12:21:38.502Z,737.91
2016-10-24T12:22:38.492Z,738.21
2016-10-24T12:23:38.489Z,738.31
2016-10-24T12:24:38.478Z,737.85
2016-10-24T12:25:38.462Z,737.98
2016-10-24T12:26:38.458Z,738.24
2016-10-24T12:27:38.441Z,738.17
2016-10-24T12:28:38.438Z,738.13
2016-10-24T12:29:38.428Z,738.43
2016-10-24T12:30:38.418Z,738.08
2016-10-24T12:31:38.400Z,738.1
2016-10-24T12:32:38.398Z,738.22
2016-10-24T12:33:38.387Z,738.26
2016-10-24T12:34:38.377Z,737.75
2016-10-24T12:35:38.359Z,738.03
2016-10-24T12:36:38.349Z,738.2
2016-10-24T12:37:38.339Z,738.06
2016-10-24T12:38:38.329Z,737.62
2016-10-24T12:39:38.326Z,737.9
2016-10-24T12:40:38.316Z,738.35
2016-10-24T12:41:38.300Z,737.37
2016-10-24T12:42:38.295Z,737.99
2016-10-24T12:43:38.277Z,738.36
2016-10-24T12:44:38.268Z,738.53
2016-10-24T12:45:38.265Z,738.41
2016-10-24T12:46:38.255Z,738.16
2016-10-24T12:47:38.238Z,737.93
2016-10-24T12:48:38.227Z,737.84
2016-10-24T12:49:38.218Z,738.11
2016-10-24T12:50:38.213Z,737.99
2016-10-24T12:51:38.198Z,738.32
2016-10-24T12:52:38.187Z,738.21
2016-10-24T12:53:38.183Z,738.11
2016-10-24T12:54:38.176Z,737.81
2016-10-24T12:55:38.164Z,738.4
2016-10-24T12:56:38.147Z,738.41
2016-10-24T12:57:38.144Z,738.2
2016-10-24T12:58:38.134Z,738.29
2016-10-24T12:59:38.119Z,737.78
2016-10-24T13:00:38.115Z,738.03
2016-10-24T13:01:38.097Z,738.24
2016-10-24T13:02:38.088Z,738.3
2016-10-24T13:03:38.079Z,738.36
2016-10-24T13:04:38.067Z,738.18
2016-10-24T13:05:38.064Z,737.99
2016-10-24T13:06:38.047Z,738.2
2016-10-24T13:07:38.045Z,738.06
2016-10-24T13:08:38.034Z,738.38
2016-10-24T13:09:38.025Z,738.12
2016-10-24T13:10:38.007Z,738
2016-10-24T13:11:38.004Z,738.12
2016-10-24T13:12:37.986Z,738.34
2016-10-24T13:13:37.978Z,738.21
2016-10-24T13:14:37.974Z,738.28
2016-10-24T13:15:37.956Z,738.62
2016-10-24T13:16:37.954Z,738.3
2016-10-24T13:17:37.936Z,738.38
2016-10-24T13:18:37.927Z,738.21
2016-10-24T13:19:37.923Z,738.4
2016-10-24T13:20:37.913Z,737.77
2016-10-24T13:21:37.904Z,738.07
2016-10-24T13:22:37.888Z,738.51
2016-10-24T13:23:37.878Z,738.12
2016-10-24T13:24:37.867Z,737.35
2016-10-24T13:25:37.863Z,737.73
2016-10-24T13:26:37.845Z,738.03
2016-10-24T13:27:37.836Z,737.81
2016-10-24T13:28:37.832Z,737.75
2016-10-24T13:29:37.822Z,737.51
2016-10-24T13:30:37.803Z,737.63
2016-10-24T13:31:37.800Z,738.02
2016-10-24T13:32:37.790Z,738.2
2016-10-24T13:33:37.774Z,737.93
2016-10-24T13:34:37.763Z,738.39
2016-10-24T13:35:37.759Z,738.54
2016-10-24T13:36:37.742Z,738.24
2016-10-24T13:37:37.740Z,738.49
2016-10-24T13:38:37.727Z,738.24
2016-10-24T13:39:37.711Z,738.17
2016-10-24T13:40:37.701Z,738.05
2016-10-24T13:41:37.696Z,738.42
2016-10-24T13:42:37.686Z,738.3
2016-10-24T13:43:37.676Z,738.53
2016-10-24T13:44:37.659Z,738.28
2016-10-24T13:45:37.648Z,738.44
2016-10-24T13:46:37.638Z,738.36
2016-10-24T13:47:37.628Z,738.38
2016-10-24T13:48:37.617Z,737.98
2016-10-24T13:49:37.606Z,737.99
2016-10-24T13:50:37.597Z,738.15
2016-10-24T13:51:37.593Z,738.38
2016-10-24T13:52:37.575Z,738.27
2016-10-24T13:53:37.565Z,738.29
2016-10-24T13:54:37.555Z,738.44
2016-10-24T13:55:37.544Z,738.49
2016-10-24T13:56:37.543Z,738.39
2016-10-24T13:57:37.532Z,738.27
2016-10-24T13:58:37.516Z,738.4
2016-10-24T13:59:37.511Z,738.55
2016-10-24T14:00:37.501Z,738.34
2016-10-24T14:01:37.491Z,738.71
2016-10-24T14:02:37.474Z,738.52
2016-10-24T14:03:37.471Z,738.49
2016-10-24T14:04:37.461Z,738.64
2016-10-24T14:05:37.451Z,738.44
2016-10-24T14:06:37.434Z,738.59
2016-10-24T14:07:37.431Z,738.7
2016-10-24T14:08:37.416Z,738.8
2016-10-24T14:09:37.413Z,738.71
2016-10-24T14:10:37.402Z,738.95
2016-10-24T14:11:37.385Z,738.65
2016-10-24T14:12:37.383Z,738.78
2016-10-24T14:13:37.367Z,738.74
2016-10-24T14:14:37.357Z,738.83
2016-10-24T14:15:37.355Z,738.88
2016-10-24T14:16:37.337Z,738.5
2016-10-24T14:17:37.325Z,738.78
2016-10-24T14:18:37.322Z,738.51
2016-10-24T14:19:37.312Z,738.53
2016-10-24T14:20:37.303Z,738.76
2016-10-24T14:21:37.292Z,738.71
2016-10-24T14:22:37.274Z,738.89
2016-10-24T14:23:37.272Z,738.36
2016-10-24T14:24:37.255Z,739.04
2016-10-24T14:25:37.250Z,738.44
2016-10-24T14:26:37.240Z,738.62
2016-10-24T14:27:37.230Z,738.65
2016-10-24T14:28:37.219Z,738.45
2016-10-24T14:29:37.209Z,738.69
2016-10-24T14:30:37.199Z,738.6
2016-10-24T14:31:37.188Z,738.5
2016-10-24T14:32:37.171Z,737.99
2016-10-24T14:33:37.160Z,738.35
2016-10-24T14:34:37.156Z,738.42
2016-10-24T14:35:37.146Z,738.99
2016-10-24T14:36:37.127Z,738.55
2016-10-24T14:37:37.118Z,738.68
2016-10-24T14:38:37.107Z,738.62
2016-10-24T14:39:37.096Z,738.36
2016-10-24T14:40:37.092Z,738.54
2016-10-24T14:41:37.074Z,738.85
2016-10-24T14:42:37.065Z,738.18
2016-10-24T14:43:37.059Z,738.19
2016-10-24T14:44:37.042Z,738.26
2016-10-24T14:45:37.039Z,738.31
2016-10-24T14:46:37.021Z,738.02
2016-10-24T14:47:37.017Z,738.05
2016-10-24T14:48:37.006Z,737.81
2016-10-24T14:49:36.996Z,738.43
2016-10-24T14:50:36.984Z,738.46
2016-10-24T14:51:36.973Z,738.2
2016-10-24T14:52:36.956Z,738.22
2016-10-24T14:53:36.952Z,738.21
2016-10-24T14:54:36.941Z,738.63
2016-10-24T14:55:36.930Z,738.72
2016-10-24T14:56:36.920Z,738.77
2016-10-24T14:57:36.902Z,738.36
2016-10-24T14:58:36.891Z,738.58
2016-10-24T14:59:36.887Z,739.19
2016-10-24T15:00:36.876Z,738.21
2016-10-24T15:01:36.859Z,738.51
2016-10-24T15:02:36.854Z,738.27
2016-10-24T15:03:36.838Z,739.04
2016-10-24T15:04:36.834Z,738.4
2016-10-24T15:05:36.822Z,738.58
2016-10-24T15:06:36.805Z,738.58
2016-10-24T15:07:36.801Z,738.49
2016-10-24T15:08:36.790Z,738.13
2016-10-24T15:09:36.780Z,738.67
2016-10-24T15:10:36.769Z,738.25
2016-10-24T15:11:36.752Z,738.57
2016-10-24T15:12:36.747Z,738.62
2016-10-24T15:13:36.737Z,738.31
2016-10-24T15:14:36.719Z,738.21
2016-10-24T15:15:36.710Z,738.83
2016-10-24T15:16:36.698Z,738.7
2016-10-24T15:17:36.694Z,738.97
2016-10-24T15:18:36.677Z,738.67
2016-10-24T15:19:36.666Z,738.81
2016-10-24T15:20:36.661Z,738.04
2016-10-24T15:21:36.645Z,738.43
2016-10-24T15:22:36.640Z,738.86
2016-10-24T15:23:36.629Z,739.26
2016-10-24T15:24:36.612Z,739.08
2016-10-24T15:25:36.600Z,738.46
2016-10-24T15:26:36.597Z,738.93
2016-10-24T15:27:36.578Z,738.2
2016-10-24T15:28:36.569Z,738.71
2016-10-24T15:29:36.558Z,738.51
2016-10-24T15:30:36.547Z,739.11
2016-10-24T15:31:36.535Z,738.73
2016-10-24T15:32:36.532Z,738.8
2016-10-24T15:33:36.522Z,738.87
2016-10-24T15:34:36.510Z,738.85
2016-10-24T15:35:36.499Z,739.02
2016-10-24T15:36:36.483Z,738.78
2016-10-24T15:37:36.472Z,738.57
2016-10-24T15:38:36.461Z,738.45
2016-10-24T15:39:36.449Z,738.96
2016-10-24T15:40:36.446Z,738.86
2016-10-24T15:41:36.427Z,738.74
2016-10-24T15:42:36.423Z,738.37
2016-10-24T15:43:36.413Z,738.72
2016-10-24T15:44:36.402Z,738.44
2016-10-24T15:45:36.390Z,738.67
2016-10-24T15:46:36.372Z,738.9
2016-10-24T15:47:36.419Z,739.02
2016-10-24T15:48:36.351Z,738.48
2016-10-24T15:49:36.339Z,738.97
2016-10-24T15:50:36.339Z,738.57
2016-10-24T15:51:36.319Z,737.9
2016-10-24T15:52:36.308Z,738.27
2016-10-24T15:53:36.303Z,738.52
2016-10-24T15:54:36.292Z,738.65
2016-10-24T15:55:36.281Z,738.64
2016-10-24T15:56:36.270Z,739.08
2016-10-24T15:57:36.260Z,738.95
2016-10-24T15:58:36.242Z,738.87
2016-10-24T15:59:36.237Z,738.27
2016-10-24T16:00:36.219Z,738.63
2016-10-24T16:01:36.215Z,738.74
2016-10-24T16:02:36.204Z,738.75
2016-10-24T16:03:36.185Z,738.72
2016-10-24T16:04:36.182Z,739.09
2016-10-24T16:05:36.163Z,738.87
2016-10-24T16:06:36.154Z,738.77
2016-10-24T16:07:36.142Z,738.68
2016-10-24T16:08:36.130Z,738.41
2016-10-24T16:09:36.120Z,738.92
2016-10-24T16:10:36.110Z,738.74
2016-10-24T16:11:36.104Z,738.17
2016-10-24T16:12:36.091Z,738.4
2016-10-24T16:13:36.082Z,738.48
2016-10-24T16:14:36.070Z,738.48
2016-10-24T16:15:36.059Z,738.66
2016-10-24T16:16:36.048Z,738.93
2016-10-24T16:17:36.038Z,739.16
2016-10-24T16:18:36.019Z,738.19
2016-10-24T16:19:36.009Z,738.35
2016-10-24T16:20:35.998Z,738.35
2016-10-24T16:21:35.993Z,738.58
2016-10-24T16:22:35.975Z,738.34
2016-10-24T16:23:35.970Z,738.32
2016-10-24T16:24:35.959Z,738.66
2016-10-24T16:25:35.940Z,738.14
2016-10-24T16:26:35.937Z,738.61
2016-10-24T16:27:35.930Z,738.79
2016-10-24T16:28:35.914Z,739.02
2016-10-24T16:29:35.894Z,739.01
2016-10-24T16:30:35.891Z,738.55
2016-10-24T16:31:35.873Z,738.4
2016-10-24T16:32:35.862Z,738.45
2016-10-24T16:33:35.850Z,738.43
2016-10-24T16:34:35.838Z,738.16
2016-10-24T16:35:35.835Z,738.97
2016-10-24T16:36:35.823Z,738.75
2016-10-24T16:37:35.805Z,738.86
2016-10-24T16:38:35.800Z,738.73
2016-10-24T16:39:35.790Z,738.46
2016-10-24T16:40:35.778Z,738.35
2016-10-24T16:41:35.767Z,738.35
2016-10-24T16:42:35.750Z,739.01
2016-10-24T16:43:35.739Z,738.83
2016-10-24T16:44:35.736Z,738.42
2016-10-24T16:45:35.723Z,738.46
2016-10-24T16:46:35.705Z,737.96
2016-10-24T16:47:35.701Z,738.43
2016-10-24T16:48:35.690Z,737.76
2016-10-24T16:49:35.672Z,738.74
2016-10-24T16:50:35.662Z,738.36
2016-10-24T16:51:35.651Z,738.38
2016-10-24T16:52:35.645Z,738.45
2016-10-24T16:53:35.635Z,738.41
2016-10-24T16:54:35.616Z,738.23
2016-10-24T16:55:35.612Z,738.43
2016-10-24T16:56:35.594Z,738.43
2016-10-24T16:57:35.583Z,738.85
2016-10-24T16:58:35.572Z,738.49
2016-10-24T16:59:35.560Z,738.46
2016-10-24T17:00:35.557Z,739.04
2016-10-24T17:01:35.548Z,739.1
2016-10-24T17:02:35.527Z,739.18
2016-10-24T17:03:35.517Z,738.55
2016-10-24T17:04:35.513Z,738.7
2016-10-24T17:05:35.494Z,738.67
2016-10-24T17:06:35.491Z,738.5
2016-10-24T17:07:35.480Z,738.99
2016-10-24T17:08:35.469Z,738.91
2016-10-24T17:09:35.450Z,738.61
2016-10-24T17:10:35.447Z,738.82
2016-10-24T17:11:35.436Z,738.74
2016-10-24T17:12:35.430Z,738.58
2016-10-24T17:13:35.407Z,738.43
2016-10-24T17:14:35.396Z,738.86
2016-10-24T17:15:35.393Z,738.55
2016-10-24T17:16:35.381Z,738.45
2016-10-24T17:17:35.371Z,738.46
2016-10-24T17:18:35.353Z,738.73
2016-10-24T17:19:35.349Z,738.99
2016-10-24T17:20:35.330Z,738.54
2016-10-24T17:21:35.327Z,738.92
2016-10-24T17:22:35.310Z,738.54
2016-10-24T17:23:35.305Z,738.49
2016-10-24T17:24:35.287Z,738.56
2016-10-24T17:25:35.282Z,739.39
2016-10-24T17:26:35.272Z,738.35
2016-10-24T17:27:35.260Z,738.23
2016-10-24T17:28:35.249Z,737.5
2016-10-24T17:29:35.238Z,738.87
2016-10-24T17:30:35.227Z,739.01
2016-10-24T17:31:35.208Z,738.93
2016-10-24T17:32:35.198Z,738.81
2016-10-24T17:33:35.188Z,738.98
2016-10-24T17:34:35.182Z,739.21
2016-10-24T17:35:35.164Z,738.55
2016-10-24T17:36:35.153Z,738.73
2016-10-24T17:37:35.149Z,738.81
2016-10-24T17:38:35.130Z,738.77
2016-10-24T17:39:35.126Z,738.76
2016-10-24T17:40:35.115Z,738.54
2016-10-24T17:41:35.097Z,738.95
2016-10-24T17:42:35.085Z,738.9
2016-10-24T17:43:35.081Z,739.09
2016-10-24T17:44:35.071Z,738.86
2016-10-24T17:45:35.054Z,738.82
2016-10-24T17:46:35.048Z,738.45
2016-10-24T17:47:35.032Z,738.7
2016-10-24T17:48:35.020Z,738.83
2016-10-24T17:49:35.009Z,738.6
2016-10-24T17:50:34.997Z,738.93
2016-10-24T17:51:34.994Z,738.66
2016-10-24T17:52:34.975Z,738.78
2016-10-24T17:53:34.971Z,738.83
2016-10-24T17:54:34.960Z,738.64
2016-10-24T17:55:34.943Z,738.89
2016-10-24T17:56:34.931Z,739.23
2016-10-24T17:57:34.926Z,739.09
2016-10-24T17:58:34.910Z,738.88
2016-10-24T17:59:34.898Z,739.25
2016-10-24T18:00:34.894Z,739.15
2016-10-24T18:01:34.875Z,738.83
2016-10-24T18:02:34.866Z,738.93
2016-10-24T18:03:34.862Z,738.91
2016-10-24T18:04:34.843Z,738.97
2016-10-24T18:05:34.841Z,739.04
2016-10-24T18:06:34.828Z,738.76
2016-10-24T18:07:34.818Z,738.78
2016-10-24T18:08:34.801Z,739.27
2016-10-24T18:09:34.788Z,738.95
2016-10-24T18:10:34.784Z,738.69
2016-10-24T18:11:34.768Z,738.35
2016-10-24T18:12:34.755Z,738.47
2016-10-24T18:13:34.744Z,738.76
2016-10-24T18:14:34.740Z,738.7
2016-10-24T18:15:34.729Z,737.94
2016-10-24T18:16:34.710Z,738.69
2016-10-24T18:17:34.707Z,738.82
2016-10-24T18:18:34.898Z,738.62
2016-10-24T18:19:34.678Z,739
2016-10-24T18:20:34.674Z,738.81
2016-10-24T18:21:34.656Z,739.02
2016-10-24T18:22:34.652Z,738.81
2016-10-24T18:23:34.635Z,738.54
2016-10-24T18:24:34.630Z,738.61
2016-10-24T18:25:34.612Z,738.92
2016-10-24T18:26:34.608Z,738.83
2016-10-24T18:27:34.591Z,738.56
2016-10-24T18:28:34.579Z,738.7
2016-10-24T18:29:34.567Z,738.9
2016-10-24T18:30:34.563Z,738.66
2016-10-24T18:31:34.570Z,738.82
2016-10-24T18:32:34.542Z,739.4
2016-10-24T18:33:34.524Z,739.46
2016-10-24T18:34:34.519Z,738.82
2016-10-24T18:35:34.509Z,738.78
2016-10-24T18:36:34.492Z,738.73
2016-10-24T18:37:34.486Z,738.48
2016-10-24T18:38:34.468Z,739.13
2016-10-24T18:39:34.464Z,738.66
2016-10-24T18:40:34.453Z,738.85
2016-10-24T18:41:34.449Z,739.06
2016-10-24T18:42:34.425Z,738.41
2016-10-24T18:43:34.420Z,738.6
2016-10-24T18:44:34.401Z,738.54
2016-10-24T18:45:34.397Z,738.37
2016-10-24T18:46:34.380Z,738.93
2016-10-24T18:47:34.368Z,738.83
2016-10-24T18:48:34.356Z,738.65
2016-10-24T18:49:34.345Z,738.96
2016-10-24T18:50:34.335Z,738.9
2016-10-24T18:51:34.329Z,738.22
2016-10-24T18:52:34.312Z,738.62
2016-10-24T18:53:34.307Z,738.35
2016-10-24T18:54:34.296Z,738.52
2016-10-24T18:55:34.277Z,738.58
2016-10-24T18:56:34.267Z,738.59
2016-10-24T18:57:34.256Z,738.6
2016-10-24T18:58:34.245Z,738.7
2016-10-24T18:59:34.239Z,738.42
2016-10-24T19:00:34.228Z,738.57
2016-10-24T19:01:34.210Z,738.77
2016-10-24T19:02:34.197Z,738.66
2016-10-24T19:03:34.194Z,738.28
2016-10-24T19:04:34.183Z,738.21
2016-10-24T19:05:34.172Z,738.16
2016-10-24T19:06:34.153Z,738.4
2016-10-24T19:07:34.142Z,738.81
2016-10-24T19:08:34.131Z,738.9
2016-10-24T19:09:34.119Z,738.6
2016-10-24T19:10:34.107Z,738.53
2016-10-24T19:11:34.096Z,738.7
2016-10-24T19:12:34.086Z,738.72
2016-10-24T19:13:34.074Z,738.7
2016-10-24T19:14:34.063Z,738.64
2016-10-24T19:15:34.051Z,738.75
2016-10-24T19:16:34.047Z,738.79
2016-10-24T19:17:34.029Z,738.78
2016-10-24T19:18:34.024Z,738.64
2016-10-24T19:19:34.014Z,738.54
2016-10-24T19:20:34.002Z,738.82
2016-10-24T19:21:33.990Z,738.51
2016-10-24T19:22:33.973Z,738.81
2016-10-24T19:23:33.961Z,738.79
2016-10-24T19:24:33.949Z,738.77
2016-10-24T19:25:33.946Z,738.74
2016-10-24T19:26:33.936Z,738.44
2016-10-24T19:27:33.924Z,738.77
2016-10-24T19:28:33.912Z,738.82
2016-10-24T19:29:33.901Z,738.88
2016-10-24T19:30:33.883Z,738.96
2016-10-24T19:31:33.879Z,738.93
2016-10-24T19:32:33.861Z,738.68
2016-10-24T19:33:33.849Z,738.72
2016-10-24T19:34:33.845Z,738.75
2016-10-24T19:35:33.833Z,738.6
2016-10-24T19:36:33.815Z,738.89
2016-10-24T19:37:33.804Z,738.89
2016-10-24T19:38:33.794Z,738.72
2016-10-24T19:39:33.781Z,738.99
2016-10-24T19:40:33.778Z,738.6
2016-10-24T19:41:33.767Z,738.9
2016-10-24T19:42:33.750Z,738.95
2016-10-24T19:43:33.744Z,739.26
2016-10-24T19:44:33.733Z,738.72
2016-10-24T19:45:33.716Z,738.8